Time;durP1;ratioP1;P1;durP2;ratioP2;P2;SDS_P1;SDS_P2;PMS_P1;PMS_P2;Temp;Humidity;BMP_temperature;BMP_pressure;BME280_temperature;BME280_humidity;BME280_pressure;Samples;Min_cycle;Max_cycle;Signal;HPM_P1;HPM_P2
2021/01/22 00:01:43;;;;;;;30.42;13.68;;;4.20;91.10;;;;;;5130662;27;20377;-66
2021/01/22 00:04:09;;;;;;;;;;;4.30;91.30;;;;;;5111495;27;20027;-67
2021/01/22 00:06:34;;;;;;;26.73;14.73;;;4.40;91.40;;;;;;5130550;27;20410;-67
2021/01/22 00:09:00;;;;;;;;;;;4.50;91.60;;;;;;5112921;27;20038;-66
2021/01/22 00:11:25;;;;;;;23.30;14.18;;;4.60;91.50;;;;;;5130443;27;19907;-67
2021/01/22 00:13:51;;;;;;;26.23;15.27;;;4.70;91.30;;;;;;5130120;27;20592;-67
2021/01/22 00:16:16;;;;;;;;;;;4.70;91.40;;;;;;5112574;27;20043;-67
2021/01/22 00:18:42;;;;;;;30.73;17.45;;;4.70;91.50;;;;;;5129586;27;19914;-66
2021/01/22 00:21:08;;;;;;;;;;;4.70;91.50;;;;;;5130813;27;20099;-66
2021/01/22 00:23:37;;;;;;;32.55;17.60;;;4.60;91.60;;;;;;5129945;27;19960;-67
2021/01/22 00:26:04;;;;;;;27.15;16.20;;;4.50;91.60;;;;;;5130341;27;20471;-66
2021/01/22 00:28:29;;;;;;;31.08;17.23;;;4.60;91.70;;;;;;5128635;27;20043;-66
2021/01/22 00:30:55;;;;;;;;;;;4.70;91.90;;;;;;5111360;28;20035;-66
2021/01/22 00:33:20;;;;;;;25.17;14.93;;;4.70;91.70;;;;;;5128613;27;19910;-67
2021/01/22 00:35:46;;;;;;;;;;;4.70;91.40;;;;;;5129293;28;20106;-67
2021/01/22 00:38:11;;;;;;;28.45;15.43;;;4.60;91.30;;;;;;5128977;28;19907;-66
2021/01/22 00:40:38;;;;;;;;;;;4.60;91.50;;;;;;5128732;28;20033;-66
2021/01/22 00:43:04;;;;;;;26.30;13.73;;;4.70;91.40;;;;;;5128437;27;19918;-65
2021/01/22 00:45:29;;;;;;;;;;;4.90;91.00;;;;;;5128567;28;20039;-67
2021/01/22 00:47:55;;;;;;;29.80;17.00;;;4.90;90.80;;;;;;5128362;28;20256;-65
2021/01/22 00:50:20;;;;;;;;;;;4.80;91.20;;;;;;5128900;28;20031;-66
2021/01/22 00:52:46;;;;;;;33.97;17.90;;;4.60;91.50;;;;;;5128695;28;20463;-67
2021/01/22 00:55:11;;;;;;;;;;;4.60;91.80;;;;;;5128844;28;20023;-66
2021/01/22 00:57:37;;;;;;;28.92;17.88;;;4.70;91.50;;;;;;5128058;28;19953;-67
2021/01/22 01:00:04;;;;;;;;;;;4.80;91.60;;;;;;5128885;28;20066;-67
2021/01/22 01:02:30;;;;;;;29.38;17.42;;;4.80;91.30;;;;;;5127881;28;19913;-66
2021/01/22 01:04:56;;;;;;;;;;;4.70;91.30;;;;;;5128872;28;20039;-67
2021/01/22 01:07:21;;;;;;;31.67;18.13;;;4.50;91.40;;;;;;5128413;27;19951;-67
2021/01/22 01:09:47;;;;;;;36.33;18.13;;;4.40;91.60;;;;;;5127746;28;20510;-66
2021/01/22 01:12:12;;;;;;;;;;;4.40;91.40;;;;;;5128361;27;20052;-66
2021/01/22 01:14:38;;;;;;;26.58;14.30;;;4.40;91.50;;;;;;5127794;28;19911;-67
2021/01/22 01:17:03;;;;;;;;;;;4.60;91.20;;;;;;5128618;28;20077;-65
2021/01/22 01:19:29;;;;;;;68.75;35.28;;;4.70;90.80;;;;;;5127484;28;19903;-66
2021/01/22 01:21:54;;;;;;;;;;;4.60;90.80;;;;;;5128739;28;20033;-66
2021/01/22 01:24:20;;;;;;;50.13;23.92;;;4.60;90.80;;;;;;5128033;28;19994;-67
2021/01/22 01:26:46;;;;;;;29.27;16.50;;;4.70;90.70;;;;;;5127615;27;20059;-66
2021/01/22 01:29:11;;;;;;;122.28;67.32;;;4.70;90.60;;;;;;5090298;27;1087619;-66
2021/01/22 01:31:37;;;;;;;113.28;63.40;;;4.80;90.40;;;;;;5128469;27;20035;-67
2021/01/22 01:34:02;;;;;;;;;;;4.90;90.30;;;;;;5128823;27;20089;-66
2021/01/22 01:36:28;;;;;;;74.95;46.85;;;4.90;90.20;;;;;;5128618;27;19911;-67
2021/01/22 01:38:53;;;;;;;;;;;4.90;90.10;;;;;;5129282;27;20069;-67
2021/01/22 01:41:19;;;;;;;37.03;23.27;;;4.90;89.80;;;;;;5128760;27;19950;-67
2021/01/22 01:43:45;;;;;;;;;;;4.90;89.90;;;;;;5128513;27;20027;-66
2021/01/22 01:46:10;;;;;;;42.20;27.23;;;5.00;89.50;;;;;;5128666;27;19915;-67
2021/01/22 01:48:36;;;;;;;27.00;17.15;;;5.20;89.10;;;;;;5128112;27;20471;-67
2021/01/22 01:51:02;;;;;;;;;;;5.20;88.60;;;;;;5129000;27;20038;-67
2021/01/22 01:53:28;;;;;;;31.33;16.25;;;5.20;88.80;;;;;;5128225;27;19949;-68
2021/01/22 01:55:53;;;;;;;;;;;5.10;88.70;;;;;;5127481;27;20031;-67
2021/01/22 01:58:20;;;;;;;26.55;13.10;;;5.10;88.80;;;;;;5128377;27;19907;-67
2021/01/22 02:00:45;;;;;;;33.13;14.82;;;5.10;88.80;;;;;;5127527;27;20031;-67
2021/01/22 02:03:11;;;;;;;;;;;5.20;88.60;;;;;;5128433;27;20031;-67
2021/01/22 02:05:37;;;;;;;27.10;13.75;;;5.30;88.30;;;;;;5127783;27;19919;-67
2021/01/22 02:08:03;;;;;;;;;;;5.30;88.30;;;;;;5128482;27;20111;-66
2021/01/22 02:10:30;;;;;;;24.98;11.88;;;5.40;88.10;;;;;;5127751;27;19994;-67
2021/01/22 02:12:56;;;;;;;29.63;12.00;;;5.30;87.80;;;;;;5127941;27;20525;-67
2021/01/22 02:15:23;;;;;;;19.83;10.63;;;5.40;87.50;;;;;;5109840;27;20038;-67
2021/01/22 02:17:50;;;;;;;;;;;5.50;87.20;;;;;;5127799;27;20023;-67
2021/01/22 02:20:24;;;;;;;;;;;5.40;88.20;;;;;;5128623;27;20357;-67
2021/01/22 02:22:52;;;;;;;20.35;10.68;;;5.40;87.30;;;;;;5127905;27;20012;-66
2021/01/22 02:25:21;;;;;;;16.90;10.68;;;5.40;87.20;;;;;;5127775;27;20039;-67
2021/01/22 02:27:47;;;;;;;17.98;9.60;;;5.40;87.50;;;;;;5127319;27;20043;-67
2021/01/22 02:30:13;;;;;;;;;;;5.50;87.10;;;;;;5128429;27;20509;-67
2021/01/22 02:32:43;;;;;;;23.45;9.75;;;5.50;86.50;;;;;;5127411;27;20362;-67
2021/01/22 02:35:12;;;;;;;17.65;8.82;;;5.50;86.40;;;;;;5127383;27;20046;-67
2021/01/22 02:37:38;;;;;;;19.38;9.38;;;5.60;86.00;;;;;;5127684;27;20083;-67
2021/01/22 02:40:09;;;;;;;26.08;14.30;;;5.70;85.30;;;;;;5127170;27;20042;-67
2021/01/22 02:42:40;;;;;;;21.92;10.45;;;5.80;85.30;;;;;;5127524;27;20512;-68
2021/01/22 02:45:09;;;;;;;16.88;8.52;;;5.80;85.00;;;;;;5127817;27;20035;-67
2021/01/22 02:47:36;;;;;;;15.32;7.60;;;5.80;84.60;;;;;;5127039;27;20023;-67
2021/01/22 02:50:03;;;;;;;19.17;8.10;;;5.80;84.70;;;;;;5127315;27;20027;-67
2021/01/22 02:52:28;;;;;;;16.25;8.23;;;5.80;84.80;;;;;;5127210;27;20019;-66
2021/01/22 02:54:54;;;;;;;;;;;5.70;84.60;;;;;;5128004;27;20020;-68
2021/01/22 02:57:46;;;;;;;19.00;8.65;;;5.80;84.10;;;;;;5127150;27;19908;-67
2021/01/22 03:00:21;;;;;;;21.95;9.25;;;5.80;84.00;;;;;;5127062;27;20055;-67
2021/01/22 03:03:03;;;;;;;14.88;7.57;;;5.80;84.10;;;;;;5126886;27;20015;-67
2021/01/22 03:05:31;;;;;;;18.90;9.40;;;5.90;83.10;;;;;;5126955;27;20046;-67
2021/01/22 03:08:08;;;;;;;20.67;10.90;;;6.10;83.00;;;;;;5126830;27;20034;-66
2021/01/22 03:10:37;;;;;;;24.25;12.80;;;6.20;82.60;;;;;;5126815;27;20697;-66
2021/01/22 03:13:02;;;;;;;23.38;12.18;;;6.20;82.60;;;;;;5127183;27;20513;-66
2021/01/22 03:15:28;;;;;;;;;;;6.00;83.00;;;;;;5127230;27;20031;-67
2021/01/22 03:18:23;;;;;;;22.90;12.95;;;5.90;83.60;;;;;;5108095;28;19989;-66
2021/01/22 03:20:49;;;;;;;20.63;10.40;;;6.00;83.40;;;;;;5108795;28;20488;-67
2021/01/22 03:23:15;;;;;;;;;;;5.80;84.20;;;;;;5127432;28;20035;-67
2021/01/22 03:25:42;;;;;;;26.48;12.45;;;5.80;83.70;;;;;;5127026;28;19918;-68
2021/01/22 03:28:07;;;;;;;;;;;5.70;84.10;;;;;;5126958;28;20035;-67
2021/01/22 03:30:34;;;;;;;23.35;12.43;;;5.60;84.20;;;;;;5108184;28;19907;-67
2021/01/22 03:33:00;;;;;;;22.88;12.63;;;5.50;84.80;;;;;;5126993;28;20042;-67
2021/01/22 03:35:26;;;;;;;;;;;5.80;84.30;;;;;;5127263;28;20031;-67
2021/01/22 03:37:52;;;;;;;26.02;12.02;;;5.60;84.40;;;;;;5126735;27;19907;-67
2021/01/22 03:40:18;;;;;;;18.77;11.65;;;5.50;85.10;;;;;;5126831;28;20038;-66
2021/01/22 03:42:44;;;;;;;;;;;5.50;85.30;;;;;;5127173;27;20031;-67
2021/01/22 03:45:10;;;;;;;20.65;10.73;;;5.50;85.20;;;;;;5126727;28;19922;-66
2021/01/22 03:47:36;;;;;;;22.35;12.05;;;5.50;85.00;;;;;;5107520;28;20113;-67
2021/01/22 03:50:02;;;;;;;;;;;5.50;85.50;;;;;;5126654;28;20072;-68
2021/01/22 03:52:27;;;;;;;20.77;11.30;;;5.50;85.10;;;;;;5126361;28;19932;-67
2021/01/22 03:54:53;;;;;;;;;;;5.60;84.80;;;;;;5127362;28;20080;-67
2021/01/22 03:57:18;;;;;;;23.90;11.55;;;5.60;84.40;;;;;;5126596;28;19907;-66
2021/01/22 03:59:44;;;;;;;;;;;5.70;84.40;;;;;;5126826;28;20072;-66
2021/01/22 04:02:10;;;;;;;20.48;10.20;;;5.70;84.20;;;;;;5126336;28;20203;-67
2021/01/22 04:04:35;;;;;;;19.15;10.80;;;5.60;84.50;;;;;;5108094;28;20099;-66
2021/01/22 04:07:01;;;;;;;;;;;5.70;84.10;;;;;;5126704;27;20031;-67
2021/01/22 04:09:27;;;;;;;18.45;9.13;;;5.70;83.70;;;;;;5108307;28;19950;-67
2021/01/22 04:11:53;;;;;;;22.45;10.30;;;5.70;83.40;;;;;;5125997;27;20396;-66
2021/01/22 04:14:18;;;;;;;;;;;5.80;83.30;;;;;;5126955;28;20034;-66
2021/01/22 04:16:44;;;;;;;17.67;9.30;;;5.80;82.90;;;;;;5126307;27;19930;-65
2021/01/22 04:19:10;;;;;;;17.23;8.63;;;6.00;82.30;;;;;;5129886;27;20058;-66
2021/01/22 04:21:35;;;;;;;;;;;6.00;82.10;;;;;;5112318;27;20041;-66
2021/01/22 04:24:01;;;;;;;22.35;10.85;;;6.00;82.20;;;;;;5130106;27;19912;-66
2021/01/22 04:26:26;;;;;;;23.20;11.10;;;6.00;82.20;;;;;;5129535;27;20039;-67
2021/01/22 04:28:56;;;;;;;;;;;5.80;82.80;;;;;;5130535;27;20461;-67
2021/01/22 04:31:21;;;;;;;20.02;9.18;;;5.80;82.50;;;;;;5129739;27;19907;-67
2021/01/22 04:33:47;;;;;;;;;;;5.80;82.60;;;;;;5130232;27;20072;-67
2021/01/22 04:36:13;;;;;;;36.25;19.10;;;5.90;82.10;;;;;;5130005;27;20291;-66
2021/01/22 04:38:38;;;;;;;34.90;20.05;;;5.90;82.20;;;;;;5130153;27;20039;-65
2021/01/22 04:41:04;;;;;;;;;;;5.90;82.50;;;;;;5130249;27;20499;-66
2021/01/22 04:43:29;;;;;;;20.25;10.27;;;5.90;82.30;;;;;;5111203;27;19994;-67
2021/01/22 04:45:55;;;;;;;;;;;5.90;82.50;;;;;;5129602;27;20035;-66
2021/01/22 04:48:21;;;;;;;17.90;9.18;;;5.90;82.20;;;;;;5111474;27;20006;-66
2021/01/22 04:50:47;;;;;;;;;;;5.90;82.10;;;;;;5130102;27;20642;-66
2021/01/22 04:53:13;;;;;;;14.90;8.48;;;6.00;81.60;;;;;;5129454;27;19907;-66
2021/01/22 04:55:44;;;;;;;19.25;8.80;;;5.90;81.30;;;;;;5129700;27;20083;-67
2021/01/22 04:58:11;;;;;;;18.83;9.82;;;5.80;81.70;;;;;;5129583;27;20095;-66
2021/01/22 05:00:38;;;;;;;21.45;11.40;;;5.80;81.90;;;;;;5129148;27;20027;-66
2021/01/22 05:03:04;;;;;;;14.75;8.68;;;5.70;81.50;;;;;;5128814;27;20417;-67
2021/01/22 05:05:30;;;;;;;20.15;9.55;;;5.70;81.90;;;;;;5129497;27;20039;-67
2021/01/22 05:07:56;;;;;;;;;;;5.70;81.40;;;;;;5129393;27;20087;-68
2021/01/22 05:10:22;;;;;;;17.80;8.35;;;5.60;81.40;;;;;;5129290;27;19907;-67
2021/01/22 05:12:48;;;;;;;;;;;5.70;81.30;;;;;;5129632;27;20027;-66
2021/01/22 05:15:24;;;;;;;16.83;7.82;;;5.80;80.90;;;;;;5128914;27;19934;-66
2021/01/22 05:18:02;;;;;;;17.33;9.23;;;5.70;81.70;;;;;;5128860;27;20015;-67
2021/01/22 05:20:41;;;;;;;17.88;8.38;;;5.70;81.00;;;;;;5129054;27;20026;-67
2021/01/22 05:23:09;;;;;;;14.07;7.70;;;5.70;81.10;;;;;;5129341;27;20387;-68
2021/01/22 05:26:02;;;;;;;17.55;9.55;;;5.60;81.40;;;;;;5128774;27;20091;-67
2021/01/22 05:28:36;;;;;;;21.85;9.90;;;5.60;81.50;;;;;;5127918;27;20035;-66
2021/01/22 05:31:03;;;;;;;17.20;10.65;;;5.60;81.60;;;;;;5128311;27;20034;-67
2021/01/22 05:33:29;;;;;;;21.95;11.20;;;5.50;81.90;;;;;;5129048;27;20046;-67
2021/01/22 05:35:54;;;;;;;;;;;5.40;82.20;;;;;;5129406;27;20475;-67
2021/01/22 05:38:50;;;;;;;22.13;9.57;;;5.40;82.30;;;;;;5128476;27;20407;-67
2021/01/22 05:41:16;;;;;;;21.20;10.75;;;5.40;82.50;;;;;;5111196;27;20031;-67
2021/01/22 05:43:42;;;;;;;22.08;10.00;;;5.40;82.40;;;;;;5128854;27;20053;-67
2021/01/22 05:46:11;;;;;;;;;;;5.40;82.10;;;;;;5128452;27;20038;-67
2021/01/22 05:48:37;;;;;;;20.08;9.40;;;5.60;81.90;;;;;;5128527;27;19903;-68
2021/01/22 05:51:03;;;;;;;;;;;5.50;81.70;;;;;;5129120;27;20035;-68
2021/01/22 05:53:29;;;;;;;40.10;22.80;;;5.40;82.00;;;;;;5128464;27;20404;-68
2021/01/22 05:56:09;;;;;;;31.88;19.42;;;5.50;81.90;;;;;;5109511;27;20023;-68
2021/01/22 05:58:39;;;;;;;26.45;17.00;;;5.60;81.70;;;;;;5128496;27;20023;-68
2021/01/22 06:01:08;;;;;;;24.42;14.05;;;5.60;81.60;;;;;;5127621;27;20089;-67
2021/01/22 06:03:35;;;;;;;23.60;13.00;;;5.60;81.30;;;;;;5128432;27;20047;-68
2021/01/22 06:06:01;;;;;;;23.75;14.00;;;5.60;81.40;;;;;;5128180;27;20035;-68
2021/01/22 06:08:27;;;;;;;36.85;20.40;;;5.70;81.20;;;;;;5127718;27;20055;-69
2021/01/22 06:10:53;;;;;;;;;;;5.70;81.30;;;;;;5129068;27;20067;-68
2021/01/22 06:13:30;;;;;;;29.83;14.05;;;5.80;80.90;;;;;;5127772;27;19907;-69
2021/01/22 06:15:57;;;;;;;30.05;14.82;;;5.80;80.60;;;;;;5108819;27;20026;-68
2021/01/22 06:18:30;;;;;;;18.25;10.25;;;5.90;80.20;;;;;;5128389;27;20546;-68
2021/01/22 06:21:14;;;;;;;53.45;28.27;;;6.00;79.90;;;;;;5128029;27;20026;-68
2021/01/22 06:23:40;;;;;;;41.08;20.17;;;6.20;78.90;;;;;;5127583;27;20031;-68
2021/01/22 06:26:05;;;;;;;;;;;6.10;78.90;;;;;;5128030;27;20049;-68
2021/01/22 06:28:32;;;;;;;12.13;7.13;;;6.00;79.40;;;;;;5127455;27;19915;-68
2021/01/22 06:30:58;;;;;;;14.27;9.18;;;6.00;79.90;;;;;;5127389;27;20086;-66
2021/01/22 06:33:23;;;;;;;;;;;6.10;79.90;;;;;;5127888;27;20059;-66
2021/01/22 06:35:51;;;;;;;20.05;9.57;;;6.10;79.60;;;;;;5127376;27;19907;-66
2021/01/22 06:38:22;;;;;;;13.88;6.78;;;6.20;79.30;;;;;;5127316;27;20084;-66
2021/01/22 06:40:50;;;;;;;13.45;6.70;;;6.30;78.90;;;;;;5121293;27;20503;-65
2021/01/22 06:43:16;;;;;;;15.82;8.57;;;6.30;78.60;;;;;;5127423;27;20491;-66
2021/01/22 06:45:42;;;;;;;23.95;8.98;;;6.30;78.50;;;;;;5126544;27;20546;-67
2021/01/22 06:48:08;;;;;;;;;;;6.20;78.60;;;;;;5127612;27;20031;-66
2021/01/22 06:50:35;;;;;;;23.38;10.45;;;6.20;78.90;;;;;;5127416;27;19908;-66
2021/01/22 06:53:08;;;;;;;24.42;13.85;;;6.20;79.00;;;;;;5127692;27;20553;-67
2021/01/22 06:55:54;;;;;;;17.63;8.52;;;6.30;78.60;;;;;;5127289;27;20023;-65
2021/01/22 06:58:24;;;;;;;15.80;7.45;;;6.30;78.30;;;;;;5126853;27;20038;-67
2021/01/22 07:00:52;;;;;;;16.20;7.63;;;6.30;78.60;;;;;;5127289;27;20211;-66
2021/01/22 07:03:36;;;;;;;13.02;6.75;;;6.40;77.80;;;;;;5127044;27;20035;-68
2021/01/22 07:06:06;;;;;;;24.92;14.93;;;6.50;78.00;;;;;;5126845;27;20038;-66
2021/01/22 07:08:54;;;;;;;27.60;11.93;;;6.50;77.50;;;;;;5126792;27;20027;-67
2021/01/22 07:11:20;;;;;;;18.08;9.57;;;6.40;78.40;;;;;;5127172;27;20066;-65
2021/01/22 07:13:47;;;;;;;15.05;8.10;;;6.60;77.10;;;;;;5126316;27;20024;-67
2021/01/22 07:16:18;;;;;;;15.75;7.15;;;6.60;76.60;;;;;;5127252;27;20023;-65
2021/01/22 07:18:50;;;;;;;20.13;8.00;;;6.60;76.60;;;;;;5126785;27;20027;-65
2021/01/22 07:21:38;;;;;;;18.33;7.90;;;6.70;76.90;;;;;;5126679;27;20031;-66
2021/01/22 07:24:08;;;;;;;54.60;24.50;;;6.60;77.00;;;;;;5126652;27;20067;-66
2021/01/22 07:26:40;;;;;;;45.15;22.15;;;6.50;77.00;;;;;;5127090;28;20106;-67
2021/01/22 07:29:33;;;;;;;27.23;10.82;;;6.60;76.70;;;;;;5126248;27;20570;-67
2021/01/22 07:32:06;;;;;;;25.48;12.63;;;6.50;77.70;;;;;;5123183;28;20041;-66
2021/01/22 07:34:50;;;;;;;30.88;16.40;;;6.60;77.00;;;;;;5126351;28;20102;-67
2021/01/22 07:37:24;;;;;;;26.42;15.35;;;6.60;76.90;;;;;;5126338;27;20408;-68
2021/01/22 07:39:52;;;;;;;23.38;14.30;;;6.60;76.80;;;;;;5127010;28;20025;-67
2021/01/22 07:42:19;;;;;;;29.27;19.77;;;6.60;77.10;;;;;;5126669;28;20043;-67
2021/01/22 07:44:50;;;;;;;35.25;18.52;;;6.70;76.70;;;;;;5125688;28;20399;-67
2021/01/22 07:47:43;;;;;;;36.83;18.35;;;6.60;76.80;;;;;;5108320;28;20310;-67
2021/01/22 07:50:12;;;;;;;21.77;10.55;;;6.80;76.00;;;;;;5122617;28;20176;-67
2021/01/22 07:52:37;;;;;;;25.35;12.13;;;6.70;76.00;;;;;;5128026;27;20102;-68
2021/01/22 07:55:03;;;;;;;;;;;6.70;76.40;;;;;;5131409;27;20136;-67
2021/01/22 07:57:29;;;;;;;21.25;10.07;;;6.70;76.00;;;;;;5112065;27;19994;-67
2021/01/22 07:59:57;;;;;;;;;;;6.70;76.10;;;;;;5130486;27;20160;-66
2021/01/22 08:02:24;;;;;;;18.40;8.48;;;6.70;76.10;;;;;;5130550;27;19930;-67
2021/01/22 08:04:57;;;;;;;20.40;9.30;;;6.60;76.30;;;;;;5130619;27;20608;-68
2021/01/22 08:07:34;;;;;;;23.10;10.13;;;6.70;76.30;;;;;;5130701;27;20042;-67
2021/01/22 08:09:59;;;;;;;16.25;7.95;;;6.80;75.60;;;;;;5111590;27;20401;-67
2021/01/22 08:12:25;;;;;;;;;;;6.80;75.50;;;;;;5130977;27;20046;-68
2021/01/22 08:14:51;;;;;;;17.10;8.18;;;6.80;75.70;;;;;;5130098;27;20260;-67
2021/01/22 08:17:16;;;;;;;;;;;6.80;75.80;;;;;;5112292;27;20031;-67
2021/01/22 08:19:42;;;;;;;24.60;12.75;;;6.80;75.30;;;;;;5130356;27;19959;-67
2021/01/22 08:22:13;;;;;;;;;;;6.90;75.50;;;;;;5130326;27;20035;-67
2021/01/22 08:24:47;;;;;;;43.90;20.48;;;7.00;74.50;;;;;;5130139;27;19924;-68
2021/01/22 08:27:13;;;;;;;19.35;10.77;;;7.00;74.60;;;;;;5130267;27;20015;-68
2021/01/22 08:29:39;;;;;;;;;;;7.00;74.30;;;;;;5129952;27;20043;-68
2021/01/22 08:32:08;;;;;;;18.58;9.63;;;7.00;74.80;;;;;;5130022;27;19919;-67
2021/01/22 08:34:35;;;;;;;18.73;10.52;;;7.20;74.20;;;;;;5111182;27;20194;-67
2021/01/22 08:37:00;;;;;;;16.05;9.57;;;7.20;74.70;;;;;;5111487;27;20023;-67
2021/01/22 08:39:26;;;;;;;;;;;7.20;73.70;;;;;;5130350;27;20035;-67
2021/01/22 08:41:51;;;;;;;30.08;16.92;;;7.10;73.80;;;;;;5129584;27;19903;-66
2021/01/22 08:44:17;;;;;;;;;;;7.20;73.70;;;;;;5129800;27;20039;-67
2021/01/22 08:46:47;;;;;;;29.15;17.73;;;7.20;74.10;;;;;;5129589;27;19994;-67
2021/01/22 08:49:15;;;;;;;15.73;7.55;;;7.10;74.30;;;;;;5129828;27;20031;-67
2021/01/22 08:51:41;;;;;;;19.13;9.55;;;7.10;74.30;;;;;;5111231;27;20399;-66
2021/01/22 08:54:07;;;;;;;;;;;7.10;74.30;;;;;;5130269;27;20023;-66
2021/01/22 08:56:33;;;;;;;15.02;7.43;;;7.20;73.30;;;;;;5129640;27;19907;-65
2021/01/22 08:59:07;;;;;;;13.25;7.15;;;7.20;73.30;;;;;;5128851;27;20670;-67
2021/01/22 09:01:52;;;;;;;14.60;6.65;;;7.30;73.40;;;;;;5111291;27;20031;-68
2021/01/22 09:04:26;;;;;;;16.52;8.52;;;7.20;73.10;;;;;;5129056;27;20038;-67
2021/01/22 09:06:59;;;;;;;15.63;8.93;;;7.30;72.90;;;;;;5129168;27;20039;-67
2021/01/22 09:09:36;;;;;;;13.43;7.75;;;7.20;73.40;;;;;;5129553;27;20019;-68
2021/01/22 09:12:18;;;;;;;18.73;9.68;;;7.30;73.40;;;;;;5128958;27;20031;-67
2021/01/22 09:14:48;;;;;;;30.02;14.27;;;7.40;72.70;;;;;;5129517;27;20098;-67
2021/01/22 09:17:36;;;;;;;21.50;10.80;;;7.40;72.70;;;;;;5128967;27;20035;-67
2021/01/22 09:20:22;;;;;;;17.63;9.82;;;7.40;73.40;;;;;;5129469;27;20023;-67
2021/01/22 09:22:50;;;;;;;23.52;11.98;;;7.40;73.20;;;;;;5128934;27;20088;-67
2021/01/22 09:25:20;;;;;;;19.13;11.18;;;7.50;73.00;;;;;;5129086;27;20042;-67
2021/01/22 09:27:47;;;;;;;21.42;9.50;;;7.60;72.80;;;;;;5128352;27;20043;-67
2021/01/22 09:30:15;;;;;;;14.40;7.93;;;7.50;72.90;;;;;;5129218;27;20517;-67
2021/01/22 09:32:45;;;;;;;13.60;7.03;;;7.50;73.20;;;;;;5128884;27;20027;-67
2021/01/22 09:35:11;;;;;;;16.45;8.00;;;7.60;73.60;;;;;;5128487;27;20061;-67
2021/01/22 09:37:36;;;;;;;;;;;7.70;73.70;;;;;;5110798;27;20062;-67
2021/01/22 09:40:04;;;;;;;13.73;6.72;;;7.80;72.10;;;;;;5128833;27;19925;-68
2021/01/22 09:42:30;;;;;;;18.08;7.80;;;7.90;71.60;;;;;;5128325;27;20072;-67
2021/01/22 09:44:56;;;;;;;;;;;8.00;71.30;;;;;;5129143;27;20043;-67
2021/01/22 09:47:21;;;;;;;18.73;6.25;;;8.10;71.00;;;;;;5128647;27;19909;-68
2021/01/22 09:49:47;;;;;;;12.45;6.78;;;8.10;70.60;;;;;;5128217;27;20444;-67
2021/01/22 09:52:14;;;;;;;14.95;5.38;;;8.20;70.50;;;;;;5128266;27;20407;-67
2021/01/22 09:54:40;;;;;;;50.80;28.77;;;8.20;70.60;;;;;;5110050;27;20484;-68
2021/01/22 09:57:06;;;;;;;13.35;6.00;;;8.40;70.20;;;;;;5127830;27;20110;-70
2021/01/22 09:59:31;;;;;;;;;;;8.60;69.10;;;;;;5129042;27;20098;-68
2021/01/22 10:01:57;;;;;;;15.57;7.90;;;8.50;68.90;;;;;;5127769;27;19915;-70
2021/01/22 10:04:22;;;;;;;13.95;6.18;;;8.50;69.30;;;;;;5128780;27;20088;-66
2021/01/22 10:06:48;;;;;;;;;;;8.70;67.90;;;;;;5128607;27;20034;-67
2021/01/22 10:09:14;;;;;;;10.88;5.80;;;8.80;67.30;;;;;;5128265;27;19953;-68
2021/01/22 10:11:40;;;;;;;;;;;8.80;67.90;;;;;;5128476;27;20027;-67
2021/01/22 10:14:06;;;;;;;15.30;8.82;;;8.70;67.90;;;;;;5127982;27;19910;-67
2021/01/22 10:16:32;;;;;;;22.67;12.63;;;8.70;68.40;;;;;;5127545;27;20037;-67
2021/01/22 10:18:58;;;;;;;;;;;8.60;68.60;;;;;;5127958;27;20026;-67
2021/01/22 10:21:24;;;;;;;14.18;7.03;;;8.70;67.80;;;;;;5127539;27;19907;-67
2021/01/22 10:23:50;;;;;;;;;;;8.70;68.20;;;;;;5128255;27;20027;-67
2021/01/22 10:26:18;;;;;;;14.70;7.80;;;8.60;68.40;;;;;;5127705;27;19918;-68
2021/01/22 10:28:44;;;;;;;14.00;6.90;;;8.50;69.10;;;;;;5109068;27;20047;-67
2021/01/22 10:31:10;;;;;;;15.48;7.32;;;8.50;69.10;;;;;;5127484;27;20019;-66
2021/01/22 10:33:36;;;;;;;;;;;8.50;69.30;;;;;;5128050;27;20030;-67
2021/01/22 10:36:02;;;;;;;21.73;10.52;;;8.40;70.20;;;;;;5127312;27;20006;-67
2021/01/22 10:38:28;;;;;;;15.40;7.18;;;8.50;70.30;;;;;;5127457;27;20498;-66
2021/01/22 10:40:54;;;;;;;;;;;8.50;70.00;;;;;;5127974;27;20031;-67
2021/01/22 10:43:21;;;;;;;21.13;8.23;;;8.50;70.20;;;;;;5108440;27;20427;-67
2021/01/22 10:45:46;;;;;;;56.83;29.85;;;8.60;68.90;;;;;;5127263;27;20035;-66
2021/01/22 10:48:12;;;;;;;;;;;8.60;69.10;;;;;;5127954;27;20528;-66
2021/01/22 10:50:37;;;;;;;26.33;16.23;;;8.70;68.90;;;;;;5127240;27;19914;-67
2021/01/22 10:53:03;;;;;;;;;;;8.50;69.40;;;;;;5128082;27;20030;-67
2021/01/22 10:55:28;;;;;;;12.35;6.53;;;8.40;70.30;;;;;;5126756;27;20480;-67
2021/01/22 10:57:54;;;;;;;60.70;37.05;;;8.60;69.90;;;;;;5126820;27;20152;-66
2021/01/22 11:00:20;;;;;;;;;;;8.40;70.50;;;;;;5127449;27;20035;-67
2021/01/22 11:02:45;;;;;;;16.45;7.60;;;8.40;70.80;;;;;;5126919;27;19911;-67
2021/01/22 11:05:11;;;;;;;;;;;8.30;71.70;;;;;;5127592;27;20453;-66
2021/01/22 11:07:37;;;;;;;15.95;6.90;;;8.20;71.90;;;;;;5126745;27;19904;-67
2021/01/22 11:10:04;;;;;;;;;;;8.20;72.10;;;;;;5127737;27;20027;-66
2021/01/22 11:12:29;;;;;;;19.33;7.30;;;8.20;71.80;;;;;;5126464;27;20295;-67
2021/01/22 11:14:55;;;;;;;;;;;8.20;72.30;;;;;;5127520;27;20035;-67
2021/01/22 11:17:20;;;;;;;14.65;8.70;;;8.20;72.90;;;;;;5126737;27;20038;-67
2021/01/22 11:19:46;;;;;;;;;;;8.20;72.00;;;;;;5127388;27;20420;-67
2021/01/22 11:22:12;;;;;;;15.82;7.80;;;8.30;71.70;;;;;;5127134;28;20484;-66
2021/01/22 11:24:38;;;;;;;18.20;8.23;;;8.30;72.40;;;;;;5126575;27;20023;-66
2021/01/22 11:27:03;;;;;;;;;;;8.30;72.40;;;;;;5128581;27;20041;-67
2021/01/22 11:29:29;;;;;;;23.80;12.90;;;8.30;72.40;;;;;;5131381;27;19922;-67
2021/01/22 11:31:54;;;;;;;;;;;8.20;72.70;;;;;;5130980;27;20039;-66
2021/01/22 11:34:20;;;;;;;26.80;14.50;;;8.30;72.60;;;;;;5131299;27;19910;-67
2021/01/22 11:36:46;;;;;;;43.45;19.73;;;8.40;72.50;;;;;;5131380;27;20034;-66
2021/01/22 11:39:12;;;;;;;;;;;8.40;73.00;;;;;;5130246;27;20031;-67
2021/01/22 11:41:37;;;;;;;29.27;13.02;;;8.30;74.00;;;;;;5130882;27;20017;-67
2021/01/22 11:44:03;;;;;;;;;;;8.30;74.10;;;;;;5131192;27;20023;-67
2021/01/22 11:46:29;;;;;;;173.82;69.65;;;8.40;73.80;;;;;;5130741;27;19924;-67
2021/01/22 11:48:54;;;;;;;;;;;8.50;74.20;;;;;;5131498;27;20098;-68
2021/01/22 11:51:20;;;;;;;47.58;19.88;;;8.40;73.60;;;;;;5131071;27;19903;-67
2021/01/22 11:53:45;;;;;;;;;;;8.30;74.50;;;;;;5112422;27;20027;-67
2021/01/22 11:56:11;;;;;;;34.90;14.48;;;8.30;75.10;;;;;;5130474;27;19909;-67
2021/01/22 11:58:36;;;;;;;;;;;8.40;74.80;;;;;;5131287;27;20114;-67
2021/01/22 12:01:03;;;;;;;25.40;12.10;;;8.30;75.90;;;;;;5130857;27;19904;-67
2021/01/22 12:03:28;;;;;;;29.92;14.38;;;8.30;76.30;;;;;;5130588;27;20027;-67
2021/01/22 12:05:54;;;;;;;;;;;8.50;75.20;;;;;;5129618;27;20096;-67
2021/01/22 12:08:20;;;;;;;22.67;10.57;;;8.40;76.10;;;;;;5130237;27;19922;-67
2021/01/22 12:10:45;;;;;;;;;;;8.30;76.80;;;;;;5130770;27;20084;-66
2021/01/22 12:13:11;;;;;;;20.02;10.18;;;8.20;76.50;;;;;;5130016;27;19903;-66
2021/01/22 12:15:37;;;;;;;;;;;8.00;77.70;;;;;;5131001;27;20034;-66
2021/01/22 12:18:03;;;;;;;23.35;11.45;;;8.00;77.90;;;;;;5130440;27;20039;-67
2021/01/22 12:20:29;;;;;;;32.50;16.38;;;7.80;78.80;;;;;;5111744;27;20055;-68
2021/01/22 12:22:54;;;;;;;;;;;7.80;79.80;;;;;;5131103;27;20034;-67
2021/01/22 12:25:20;;;;;;;34.20;16.25;;;7.70;80.30;;;;;;5129591;27;20340;-66
2021/01/22 12:27:46;;;;;;;50.50;19.58;;;7.70;80.60;;;;;;5130116;27;20053;-67
2021/01/22 12:30:12;;;;;;;25.38;12.07;;;7.70;80.70;;;;;;5130360;27;20037;-67
2021/01/22 12:32:38;;;;;;;37.53;20.27;;;7.70;80.70;;;;;;5130003;27;20117;-67
2021/01/22 12:35:04;;;;;;;;;;;7.70;80.30;;;;;;5112886;27;20127;-67
2021/01/22 12:37:30;;;;;;;43.70;18.98;;;7.80;80.70;;;;;;5130490;27;20291;-67
2021/01/22 12:39:55;;;;;;;27.00;10.95;;;7.70;80.90;;;;;;5129205;27;20035;-67
2021/01/22 12:42:21;;;;;;;;;;;7.60;81.10;;;;;;5130098;27;20060;-68
2021/01/22 12:44:46;;;;;;;21.35;9.85;;;7.60;81.10;;;;;;5129958;27;19919;-68
2021/01/22 12:47:12;;;;;;;;;;;7.40;81.70;;;;;;5130503;27;20029;-67
2021/01/22 12:49:38;;;;;;;33.38;12.55;;;7.30;82.50;;;;;;5129569;27;20337;-68
2021/01/22 12:52:05;;;;;;;35.65;15.93;;;7.30;83.50;;;;;;5129806;27;20036;-66
2021/01/22 12:54:31;;;;;;;18.83;8.85;;;7.50;83.80;;;;;;5129038;27;20072;-67
2021/01/22 12:56:57;;;;;;;21.88;12.05;;;7.60;82.10;;;;;;5110181;27;20028;-66
2021/01/22 12:59:23;;;;;;;;;;;7.60;82.60;;;;;;5130237;27;20038;-66
2021/01/22 13:01:49;;;;;;;16.67;7.93;;;7.70;82.70;;;;;;5129059;27;19958;-66
2021/01/22 13:04:14;;;;;;;;;;;7.50;83.00;;;;;;5129616;27;20024;-67
2021/01/22 13:06:40;;;;;;;16.70;8.65;;;7.50;83.40;;;;;;5129734;27;19911;-66
2021/01/22 13:09:05;;;;;;;;;;;7.50;83.70;;;;;;5111597;27;20588;-66
2021/01/22 13:11:31;;;;;;;17.33;8.50;;;7.60;82.90;;;;;;5128887;27;19907;-66
2021/01/22 13:13:57;;;;;;;24.88;11.32;;;7.60;82.90;;;;;;5129297;27;20030;-69